Time;durP1;ratioP1;P1;durP2;ratioP2;P2;SDS_P1;SDS_P2;PMS_P1;PMS_P2;Temp;Humidity;BMP_temperature;BMP_pressure;BME280_temperature;BME280_humidity;BME280_pressure;Samples;Min_cycle;Max_cycle;Signal;HPM_P1;HPM_P2
2021/06/05 00:01:04;;;;;;;;;;;;;;;8.73;75.82;96470.55;1680748;85;20132;-59
2021/06/05 00:03:31;;;;;;;;;;;;;;;8.71;77.95;96472.28;1680940;85;20405;-59
2021/06/05 00:05:59;;;;;;;;;;;;;;;8.64;78.40;96472.28;1657713;86;20106;-60
2021/06/05 00:08:31;;;;;;;;;;;;;;;8.66;78.73;96469.63;1658816;87;20173;-59
2021/06/05 00:11:00;;;;;;;;;;;;;;;8.61;79.23;96470.06;1648826;86;20106;-59
2021/06/05 00:13:36;;;;;;;;;;;;;;;8.58;78.99;96468.30;1676027;86;20475;-59
2021/06/05 00:16:05;;;;;;;;;;;;;;;8.61;78.47;96467.42;1675052;86;20141;-59
2021/06/05 00:18:32;;;;;;;;;;;;;;;8.66;78.17;96473.14;1675936;86;20101;-59
2021/06/05 00:20:58;;;;;;;;;;;;;;;8.69;77.58;96468.32;1675931;86;20119;-60
2021/06/05 00:23:26;;;;;;;;;;;;;;;8.79;77.24;96466.16;1675987;86;20419;-59
2021/06/05 00:25:54;;;;;;;;;;;;;;;8.71;77.46;96467.02;1676000;86;20117;-59
2021/06/05 00:28:22;;;;;;;;;;;;;;;8.68;77.16;96465.27;1676048;86;20150;-59
2021/06/05 00:30:48;;;;;;;;;;;;;;;8.64;77.31;96473.59;1676091;86;20102;-59
2021/06/05 00:33:15;;;;;;;;;;;;;;;8.65;77.45;96470.52;1675996;86;20428;-60
2021/06/05 00:35:41;;;;;;;;;;;;;;;8.71;77.03;96465.27;1676093;86;20150;-59
2021/06/05 00:38:08;;;;;;;;;;;;;;;8.72;76.86;96464.41;1675910;86;20105;-59
2021/06/05 00:40:38;;;;;;;;;;;;;;;8.68;77.09;96467.02;1676264;86;20113;-59
2021/06/05 00:43:06;;;;;;;;;;;;;;;8.56;78.26;96462.59;1676553;86;20498;-59
2021/06/05 00:45:36;;;;;;;;;;;;;;;8.49;78.56;96466.06;1676255;86;20143;-59
2021/06/05 00:48:04;;;;;;;;;;;;;;;8.47;78.46;96462.14;1648914;86;20133;-60
2021/06/05 00:50:33;;;;;;;;;;;;;;;8.43;78.12;96457.73;1648894;86;20106;-59
2021/06/05 00:53:01;;;;;;;;;;;;;;;8.35;78.02;96460.73;1649128;86;20137;-59
2021/06/05 00:55:30;;;;;;;;;;;;;;;8.30;77.39;96457.22;1676221;83;20161;-60
2021/06/05 00:57:57;;;;;;;;;;;;;;;8.24;77.98;96449.74;1673428;84;20118;-59
2021/06/05 01:00:37;;;;;;;;;;;;;;;8.14;78.06;96454.52;1702954;84;20134;-60
2021/06/05 01:03:05;;;;;;;;;;;;;;;8.06;78.21;96452.70;1702938;84;20134;-61
2021/06/05 01:05:33;;;;;;;;;;;;;;;8.00;78.34;96454.44;1703299;84;20137;-60
2021/06/05 01:08:14;;;;;;;;;;;;;;;7.93;79.17;96453.95;1702867;84;20167;-60
2021/06/05 01:10:44;;;;;;;;;;;;;;;7.93;78.32;96453.08;1703286;84;20135;-60
2021/06/05 01:13:26;;;;;;;;;;;;;;;7.78;80.03;96450.80;1702956;84;20118;-59
2021/06/05 01:15:59;;;;;;;;;;;;;;;7.79;79.76;96446.02;1695409;84;20158;-59
2021/06/05 01:18:29;;;;;;;;;;;;;;;7.72;79.78;96439.40;1703118;84;20158;-60
2021/06/05 01:21:03;;;;;;;;;;;;;;;7.69;79.66;96444.20;1703291;84;20142;-59
2021/06/05 01:23:49;;;;;;;;;;;;;;;7.72;80.00;96443.34;1703357;84;20444;-59
2021/06/05 01:26:22;;;;;;;;;;;;;;;7.73;80.40;96445.95;1703328;84;20451;-59
2021/06/05 01:29:15;;;;;;;;;;;;;;;7.70;81.06;96438.50;1703292;84;20134;-59
2021/06/05 01:31:46;;;;;;;;;;;;;;;7.70;80.42;96442.44;1703259;84;20115;-59
2021/06/05 01:34:13;;;;;;;;;;;;;;;7.59;80.16;96441.07;1702516;84;20114;-59
2021/06/05 01:36:44;;;;;;;;;;;;;;;7.59;80.00;96443.70;1703059;84;20159;-59
2021/06/05 01:39:16;;;;;;;;;;;;;;;7.67;79.61;96438.49;1703361;84;20134;-59
2021/06/05 01:41:45;;;;;;;;;;;;;;;7.83;79.36;96438.14;1703219;84;20162;-60
2021/06/05 01:44:12;;;;;;;;;;;;;;;7.90;78.91;96435.55;1703351;84;20123;-60
2021/06/05 01:46:42;;;;;;;;;;;;;;;7.88;78.85;96436.41;1673395;84;20114;-60
2021/06/05 01:49:09;;;;;;;;;;;;;;;7.91;78.96;96438.64;1673481;84;20455;-60
2021/06/05 01:51:40;;;;;;;;;;;;;;;7.86;79.47;96436.42;1703241;84;20126;-59
2021/06/05 01:54:22;;;;;;;;;;;;;;;7.82;79.29;96433.77;1703082;84;20159;-60
2021/06/05 01:56:55;;;;;;;;;;;;;;;7.85;79.35;96430.70;1681886;85;20107;-59
2021/06/05 01:59:24;;;;;;;;;;;;;;;7.76;79.55;96425.39;1691297;85;20116;-59
2021/06/05 02:01:52;;;;;;;;;;;;;;;7.84;79.35;96421.48;1692199;85;20111;-59
2021/06/05 02:04:19;;;;;;;;;;;;;;;7.90;79.08;96417.16;1692250;85;20128;-59
2021/06/05 02:06:49;;;;;;;;;;;;;;;7.78;79.25;96431.09;1692532;85;20103;-59
2021/06/05 02:09:19;;;;;;;;;;;;;;;7.74;79.25;96428.03;1692577;84;20131;-59
2021/06/05 02:11:49;;;;;;;;;;;;;;;7.80;78.82;96424.55;1692575;84;20123;-61
2021/06/05 02:14:21;;;;;;;;;;;;;;;7.77;79.00;96429.80;1692104;85;20115;-60
2021/06/05 02:16:50;;;;;;;;;;;;;;;7.82;79.11;96426.76;1692741;85;20111;-59
2021/06/05 02:19:26;;;;;;;;;;;;;;;7.90;79.25;96422.41;1692449;85;20448;-60
2021/06/05 02:21:57;;;;;;;;;;;;;;;7.83;79.22;96417.13;1689700;85;20116;-60
2021/06/05 02:24:29;;;;;;;;;;;;;;;7.73;79.77;96424.94;1692549;85;20143;-60
2021/06/05 02:26:55;;;;;;;;;;;;;;;7.74;79.31;96421.46;1692565;84;20235;-60
2021/06/05 02:29:27;;;;;;;;;;;;;;;7.67;79.66;96420.11;1691710;85;20445;-59
2021/06/05 02:31:55;;;;;;;;;;;;;;;7.55;79.67;96417.83;1692523;85;20123;-59
2021/06/05 02:34:24;;;;;;;;;;;;;;;7.48;80.16;96417.78;1692118;85;20445;-59
2021/06/05 02:36:55;;;;;;;;;;;;;;;7.50;80.15;96415.61;1692721;84;20103;-59
2021/06/05 02:39:22;;;;;;;;;;;;;;;7.49;80.02;96406.43;1692545;85;20147;-59
2021/06/05 02:41:52;;;;;;;;;;;;;;;7.44;80.82;96407.70;1692581;85;20124;-59
2021/06/05 02:44:21;;;;;;;;;;;;;;;7.43;80.91;96411.63;1692250;85;20120;-59
2021/06/05 02:46:49;;;;;;;;;;;;;;;7.43;80.48;96414.25;1666981;85;20096;-59
2021/06/05 02:49:22;;;;;;;;;;;;;;;7.34;80.51;96412.45;1692319;84;20401;-59
2021/06/05 02:51:52;;;;;;;;;;;;;;;7.32;80.72;96412.88;1692521;85;20434;-60
2021/06/05 02:54:22;;;;;;;;;;;;;;;7.40;81.39;96410.30;1692911;84;20145;-60
2021/06/05 02:56:49;;;;;;;;;;;;;;;7.51;80.79;96407.29;1705891;83;20138;-60
2021/06/05 02:59:17;;;;;;;;;;;;;;;7.66;80.10;96413.98;1708740;84;20134;-60
2021/06/05 03:01:45;;;;;;;;;;;;;;;7.68;79.42;96410.91;1708089;84;20157;-60
2021/06/05 03:04:12;;;;;;;;;;;;;;;7.61;79.29;96405.61;1708469;84;20209;-59
2021/06/05 03:06:39;;;;;;;;;;;;;;;7.47;80.30;96406.84;1708462;84;20138;-59
2021/06/05 03:09:07;;;;;;;;;;;;;;;7.47;80.61;96401.16;1708728;84;20154;-60
2021/06/05 03:11:34;;;;;;;;;;;;;;;7.57;80.41;96398.16;1708360;84;20126;-59
2021/06/05 03:14:02;;;;;;;;;;;;;;;7.60;80.59;96400.80;1708726;84;20192;-59
2021/06/05 03:16:29;;;;;;;;;;;;;;;7.60;81.08;96398.17;1708721;84;20126;-59
2021/06/05 03:18:57;;;;;;;;;;;;;;;7.61;81.09;96390.75;1708528;84;20158;-59
2021/06/05 03:21:24;;;;;;;;;;;;;;;7.57;80.68;96391.59;1708894;84;20439;-59
2021/06/05 03:23:52;;;;;;;;;;;;;;;7.56;80.91;96398.59;1708395;84;20417;-59
2021/06/05 03:26:21;;;;;;;;;;;;;;;7.57;80.87;96394.22;1707327;84;20431;-59
2021/06/05 03:28:49;;;;;;;;;;;;;;;7.62;81.32;96399.50;1708718;84;20134;-59
2021/06/05 03:31:19;;;;;;;;;;;;;;;7.69;81.46;96402.61;1682309;84;20450;-60
2021/06/05 03:33:48;;;;;;;;;;;;;;;7.74;81.61;96407.02;1682553;84;20154;-60
2021/06/05 03:36:18;;;;;;;;;;;;;;;7.78;81.43;96401.33;1708886;84;20133;-60
2021/06/05 03:38:45;;;;;;;;;;;;;;;7.77;81.45;96407.02;1708464;84;20424;-60
2021/06/05 03:41:14;;;;;;;;;;;;;;;7.80;82.10;96408.34;1707035;84;20134;-60
2021/06/05 03:43:40;;;;;;;;;;;;;;;7.85;82.02;96401.81;1708881;84;20158;-59
2021/06/05 03:46:08;;;;;;;;;;;;;;;7.91;81.96;96399.23;1708740;84;20155;-59
2021/06/05 03:48:36;;;;;;;;;;;;;;;7.97;82.32;96398.37;1708724;84;20126;-59
2021/06/05 03:51:04;;;;;;;;;;;;;;;8.06;82.16;96393.57;1708715;84;20138;-59
2021/06/05 03:53:32;;;;;;;;;;;;;;;8.13;81.91;96390.97;1682583;84;20134;-59
2021/06/05 03:55:59;;;;;;;;;;;;;;;8.27;81.86;96391.48;1695842;84;20123;-59
2021/06/05 03:58:29;;;;;;;;;;;;;;;8.40;81.89;96384.09;1717373;83;20486;-62
2021/06/05 04:00:56;;;;;;;;;;;;;;;8.53;81.69;96381.05;1721301;82;20165;-60
2021/06/05 04:03:23;;;;;;;;;;;;;;;8.61;81.30;96377.54;1721215;83;20431;-61
2021/06/05 04:05:51;;;;;;;;;;;;;;;8.72;81.09;96372.73;1745404;82;20113;-60
2021/06/05 04:08:17;;;;;;;;;;;;;;;8.83;81.19;96369.69;1721339;83;20109;-60
2021/06/05 04:10:43;;;;;;;;;;;;;;;8.93;80.91;96363.55;1694739;83;20093;-59
2021/06/05 04:13:10;;;;;;;;;;;;;;;9.01;80.36;96360.47;1721063;83;20153;-60
2021/06/05 04:15:36;;;;;;;;;;;;;;;9.10;80.24;96352.58;1721036;83;20125;-60
2021/06/05 04:18:09;;;;;;;;;;;;;;;9.22;80.05;96358.70;1721040;83;20448;-60
2021/06/05 04:20:38;;;;;;;;;;;;;;;9.37;80.55;96354.72;1720022;83;20454;-59
2021/06/05 04:23:05;;;;;;;;;;;;;;;9.50;79.95;96344.63;1720918;83;20102;-59
2021/06/05 04:25:32;;;;;;;;;;;;;;;9.65;79.99;96348.08;1720936;83;20158;-59
2021/06/05 04:27:59;;;;;;;;;;;;;;;9.81;79.63;96348.92;1721250;83;20098;-59
2021/06/05 04:30:27;;;;;;;;;;;;;;;9.94;79.06;96340.95;1721151;83;20137;-59
2021/06/05 04:32:54;;;;;;;;;;;;;;;10.08;78.52;96338.27;1721115;83;20102;-60
2021/06/05 04:35:21;;;;;;;;;;;;;;;10.20;77.90;96332.03;1720982;83;20415;-60
2021/06/05 04:37:47;;;;;;;;;;;;;;;10.34;77.77;96336.83;1721370;83;20109;-60
2021/06/05 04:40:15;;;;;;;;;;;;;;;10.50;77.95;96345.97;1721199;83;20128;-60
2021/06/05 04:42:41;;;;;;;;;;;;;;;10.57;77.16;96331.41;1721231;83;20110;-60
2021/06/05 04:45:09;;;;;;;;;;;;;;;10.71;77.07;96322.51;1721190;83;20117;-60
2021/06/05 04:47:35;;;;;;;;;;;;;;;10.83;77.11;96323.73;1721120;83;20144;-60
2021/06/05 04:50:05;;;;;;;;;;;;;;;10.95;77.93;96329.38;1720732;83;20098;-60
2021/06/05 04:52:32;;;;;;;;;;;;;;;11.05;76.78;96321.80;1721149;83;20109;-60
2021/06/05 04:54:58;;;;;;;;;;;;;;;11.17;75.85;96326.98;1721343;83;20435;-59
2021/06/05 04:57:24;;;;;;;;;;;;;;;11.28;73.21;96314.11;1690772;85;20144;-60
2021/06/05 04:59:51;;;;;;;;;;;;;;;11.36;72.47;96314.91;1687084;85;20103;-61
2021/06/05 05:02:17;;;;;;;;;;;;;;;11.50;72.84;96309.04;1686804;85;20429;-60
2021/06/05 05:04:43;;;;;;;;;;;;;;;11.69;73.08;96315.88;1686898;85;20103;-59
2021/06/05 05:07:12;;;;;;;;;;;;;;;11.88;73.29;96315.69;1687129;85;20410;-59
2021/06/05 05:09:38;;;;;;;;;;;;;;;12.07;73.24;96311.03;1686806;85;20103;-59
2021/06/05 05:12:06;;;;;;;;;;;;;;;12.24;72.89;96303.75;1687212;85;20115;-59
2021/06/05 05:14:33;;;;;;;;;;;;;;;12.43;72.00;96297.76;1687196;85;20381;-60
2021/06/05 05:17:00;;;;;;;;;;;;;;;12.61;72.38;96292.63;1687248;85;20127;-59
2021/06/05 05:19:27;;;;;;;;;;;;;;;12.83;72.78;96294.96;1687120;85;20115;-60
2021/06/05 05:21:53;;;;;;;;;;;;;;;13.03;72.47;96294.17;1687217;85;20402;-60
2021/06/05 05:24:20;;;;;;;;;;;;;;;13.24;72.51;96293.38;1686908;85;20116;-60
2021/06/05 05:26:47;;;;;;;;;;;;;;;13.41;72.47;96290.88;1687251;85;20115;-60
2021/06/05 05:29:13;;;;;;;;;;;;;;;13.59;72.17;96291.43;1686866;85;20164;-59
2021/06/05 05:31:40;;;;;;;;;;;;;;;13.75;71.64;96296.84;1687085;85;20127;-59
2021/06/05 05:34:07;;;;;;;;;;;;;;;13.93;71.40;96300.03;1687128;85;20136;-59
2021/06/05 05:36:36;;;;;;;;;;;;;;;14.07;70.81;96284.70;1687242;85;20099;-60
2021/06/05 05:39:07;;;;;;;;;;;;;;;14.23;70.65;96286.57;1686949;85;20108;-60
2021/06/05 05:41:33;;;;;;;;;;;;;;;14.36;69.36;96280.07;1686530;85;20104;-60
2021/06/05 05:43:59;;;;;;;;;;;;;;;14.44;69.56;96283.45;1687089;85;20116;-60
2021/06/05 05:46:26;;;;;;;;;;;;;;;14.58;68.97;96280.95;1687220;85;20124;-61
2021/06/05 05:48:52;;;;;;;;;;;;;;;14.69;69.11;96285.12;1687256;85;20108;-60
2021/06/05 05:51:21;;;;;;;;;;;;;;;14.83;69.09;96287.89;1686658;85;20096;-61
2021/06/05 05:53:48;;;;;;;;;;;;;;;14.98;68.69;96292.83;1686995;85;20098;-60
2021/06/05 05:56:17;;;;;;;;;;;;;;;15.10;67.09;96287.67;1698243;84;20158;-59
2021/06/05 05:58:46;;;;;;;;;;;;;;;15.21;67.10;96291.38;1708488;83;20471;-59
2021/06/05 06:01:13;;;;;;;;;;;;;;;15.33;67.59;96283.09;1708524;84;20167;-59
2021/06/05 06:03:40;;;;;;;;;;;;;;;15.46;65.75;96284.96;1708349;84;20182;-60
2021/06/05 06:06:07;;;;;;;;;;;;;;;15.55;66.98;96288.25;1708622;84;20431;-59
2021/06/05 06:08:35;;;;;;;;;;;;;;;15.69;66.67;96290.55;1708816;84;20130;-59
2021/06/05 06:11:03;;;;;;;;;;;;;;;15.82;66.31;96282.23;1708501;84;20219;-59
2021/06/05 06:13:29;;;;;;;;;;;;;;;15.96;66.21;96272.94;1708136;84;20461;-59
2021/06/05 06:15:55;;;;;;;;;;;;;;;16.10;65.29;96276.55;1708621;84;20275;-59
2021/06/05 06:18:22;;;;;;;;;;;;;;;16.25;64.34;96275.66;1708548;84;20138;-59
2021/06/05 06:20:51;;;;;;;;;;;;;;;16.37;65.11;96272.63;1708333;84;20167;-59
2021/06/05 06:23:21;;;;;;;;;;;;;;;16.52;64.91;96267.30;1708538;84;20436;-59
2021/06/05 06:25:50;;;;;;;;;;;;;;;16.57;63.33;96264.89;1707891;84;20138;-62
2021/06/05 06:28:18;;;;;;;;;;;;;;;16.70;63.73;96266.70;1708844;84;20154;-59
2021/06/05 06:30:45;;;;;;;;;;;;;;;16.77;63.13;96260.73;1708660;84;20134;-60
2021/06/05 06:33:13;;;;;;;;;;;;;;;16.85;63.49;96260.91;1708514;84;20130;-60
2021/06/05 06:35:40;;;;;;;;;;;;;;;16.98;63.68;96262.70;1708212;84;20179;-60
2021/06/05 06:38:11;;;;;;;;;;;;;;;17.13;63.39;96259.99;1708573;84;20201;-60
2021/06/05 06:40:38;;;;;;;;;;;;;;;17.29;63.66;96258.56;1708319;84;20134;-60
2021/06/05 06:43:07;;;;;;;;;;;;;;;17.46;62.45;96255.32;1708392;84;20126;-60
2021/06/05 06:45:35;;;;;;;;;;;;;;;17.61;62.16;96256.55;1708526;84;20142;-60
2021/06/05 06:48:02;;;;;;;;;;;;;;;17.77;60.27;96250.21;1708602;84;20428;-60
2021/06/05 06:50:29;;;;;;;;;;;;;;;17.91;60.55;96253.73;1708474;84;20174;-60
2021/06/05 06:52:56;;;;;;;;;;;;;;;18.05;58.75;96249.22;1708479;84;20142;-60
2021/06/05 06:55:24;;;;;;;;;;;;;;;18.21;58.71;96250.37;1709549;84;20109;-60
2021/06/05 06:57:51;;;;;;;;;;;;;;;18.38;59.23;96249.73;1715747;84;20161;-60
2021/06/05 07:00:21;;;;;;;;;;;;;;;18.53;58.09;96247.79;1715527;84;20114;-59
2021/06/05 07:02:48;;;;;;;;;;;;;;;18.69;57.17;96247.17;1715755;84;20117;-60
2021/06/05 07:05:14;;;;;;;;;;;;;;;18.83;56.00;96246.19;1715496;84;20126;-60
2021/06/05 07:07:40;;;;;;;;;;;;;;;18.97;55.92;96242.47;1715832;84;20460;-60
2021/06/05 07:10:08;;;;;;;;;;;;;;;19.11;52.26;96246.39;1715624;84;20120;-60
2021/06/05 07:12:35;;;;;;;;;;;;;;;19.22;45.97;96237.44;1715792;84;20094;-61
2021/06/05 07:15:01;;;;;;;;;;;;;;;19.30;43.11;96238.44;1715584;84;20137;-60
2021/06/05 07:17:27;;;;;;;;;;;;;;;19.38;43.37;96241.21;1715604;84;20110;-59
2021/06/05 07:19:54;;;;;;;;;;;;;;;19.48;45.73;96235.44;1715522;84;20154;-60
2021/06/05 07:22:20;;;;;;;;;;;;;;;19.61;44.28;96225.95;1715502;84;20093;-59
2021/06/05 07:24:46;;;;;;;;;;;;;;;19.73;46.82;96221.43;1715887;84;20137;-59
2021/06/05 07:27:12;;;;;;;;;;;;;;;19.86;45.50;96226.63;1716030;84;20360;-59
2021/06/05 07:29:39;;;;;;;;;;;;;;;19.88;41.50;96219.40;1715628;84;20157;-59
2021/06/05 07:32:06;;;;;;;;;;;;;;;19.99;42.19;96216.70;1715574;84;20395;-59
2021/06/05 07:34:34;;;;;;;;;;;;;;;20.04;42.69;96220.89;1715440;84;20368;-60
2021/06/05 07:37:07;;;;;;;;;;;;;;;20.06;35.56;96214.14;1715557;84;20105;-59
2021/06/05 07:39:33;;;;;;;;;;;;;;;20.14;39.82;96218.66;1715797;84;20383;-61
2021/06/05 07:42:01;;;;;;;;;;;;;;;20.19;40.80;96213.96;1715608;84;20109;-60
2021/06/05 07:44:29;;;;;;;;;;;;;;;20.29;41.23;96221.97;1715160;84;20458;-61
2021/06/05 07:46:57;;;;;;;;;;;;;;;20.40;40.59;96216.56;1715683;84;20098;-61
2021/06/05 07:49:29;;;;;;;;;;;;;;;20.54;38.64;96214.11;1715376;84;20416;-61
2021/06/05 07:51:57;;;;;;;;;;;;;;;20.62;41.34;96214.63;1715432;84;20101;-59
2021/06/05 07:54:23;;;;;;;;;;;;;;;20.69;37.30;96209.85;1715703;84;20192;-60
2021/06/05 07:56:50;;;;;;;;;;;;;;;20.77;41.11;96207.66;1705180;84;20159;-59
2021/06/05 07:59:19;;;;;;;;;;;;;;;20.90;38.33;96207.91;1701778;84;20127;-60
2021/06/05 08:01:46;;;;;;;;;;;;;;;21.00;38.70;96205.17;1702016;84;20330;-60
2021/06/05 08:04:13;;;;;;;;;;;;;;;21.12;39.93;96200.53;1701501;84;20181;-59
2021/06/05 08:06:39;;;;;;;;;;;;;;;21.25;40.28;96194.54;1701730;84;20127;-60
2021/06/05 08:09:07;;;;;;;;;;;;;;;21.30;37.40;96190.66;1701644;84;20146;-60
2021/06/05 08:11:34;;;;;;;;;;;;;;;21.38;37.46;96189.81;1701925;84;20127;-60
2021/06/05 08:14:00;;;;;;;;;;;;;;;21.52;37.68;96190.91;1701599;84;20408;-61
2021/06/05 08:16:27;;;;;;;;;;;;;;;21.65;38.39;96196.05;1701857;84;20167;-60
2021/06/05 08:18:54;;;;;;;;;;;;;;;21.82;35.33;96192.44;1701833;84;20459;-60
2021/06/05 08:21:20;;;;;;;;;;;;;;;22.00;38.36;96191.95;1701753;84;20138;-60
2021/06/05 08:23:47;;;;;;;;;;;;;;;22.10;34.55;96187.81;1702047;84;20134;-59
2021/06/05 08:26:16;;;;;;;;;;;;;;;21.99;34.93;96183.00;1701824;84;20126;-59
2021/06/05 08:28:43;;;;;;;;;;;;;;;21.93;36.97;96186.52;1701601;84;20440;-60
2021/06/05 08:31:13;;;;;;;;;;;;;;;21.73;29.02;96177.70;1701667;84;20138;-59
2021/06/05 08:33:39;;;;;;;;;;;;;;;21.93;33.01;96183.34;1701761;84;20440;-60
2021/06/05 08:36:07;;;;;;;;;;;;;;;22.10;32.89;96181.54;1701563;84;20147;-59
2021/06/05 08:38:33;;;;;;;;;;;;;;;22.23;31.32;96179.97;1701886;84;20440;-60
2021/06/05 08:41:06;;;;;;;;;;;;;;;22.25;33.32;96176.24;1701487;84;20415;-60
2021/06/05 08:43:51;;;;;;;;;;;;;;;22.23;33.33;96180.83;1702140;84;20155;-59
2021/06/05 08:46:27;;;;;;;;;;;;;;;22.35;32.56;96175.70;1701930;84;20130;-60
2021/06/05 08:48:57;;;;;;;;;;;;;;;22.54;32.50;96183.63;1702001;84;20155;-60
2021/06/05 08:51:36;;;;;;;;;;;;;;;22.61;30.25;96189.05;1701965;84;20178;-59
2021/06/05 08:54:08;;;;;;;;;;;;;;;22.78;32.49;96175.95;1702121;84;20147;-60
2021/06/05 08:56:35;;;;;;;;;;;;;;;22.89;31.81;96181.59;1708420;84;20137;-59
2021/06/05 08:59:02;;;;;;;;;;;;;;;22.98;30.83;96177.06;1715918;83;20105;-61
2021/06/05 09:01:37;;;;;;;;;;;;;;;23.07;31.03;96175.16;1721090;83;20126;-60
2021/06/05 09:04:07;;;;;;;;;;;;;;;23.13;33.54;96179.31;1721481;83;20101;-60
2021/06/05 09:06:37;;;;;;;;;;;;;;;23.30;31.25;96168.89;1720862;83;20109;-60
2021/06/05 09:09:08;;;;;;;;;;;;;;;23.39;30.95;96171.04;1721318;83;20150;-60
2021/06/05 09:11:34;;;;;;;;;;;;;;;23.53;30.62;96166.15;1721996;82;20157;-60
2021/06/05 09:14:00;;;;;;;;;;;;;;;23.71;31.27;96158.30;1721064;83;20097;-59
2021/06/05 09:16:47;;;;;;;;;;;;;;;23.82;30.80;96154.97;1721477;83;20443;-59
2021/06/05 09:19:20;;;;;;;;;;;;;;;23.84;32.34;96154.85;1721353;83;20398;-59
2021/06/05 09:22:09;;;;;;;;;;;;;;;24.00;33.94;96149.39;1721255;83;20124;-59
2021/06/05 09:24:38;;;;;;;;;;;;;;;24.11;32.48;96149.56;1721231;82;20399;-59
2021/06/05 09:27:08;;;;;;;;;;;;;;;24.16;31.39;96150.13;1721314;83;20129;-59
2021/06/05 09:29:56;;;;;;;;;;;;;;;24.24;31.42;96150.98;1721542;83;20435;-59
2021/06/05 09:32:29;;;;;;;;;;;;;;;24.37;33.20;96139.33;1721453;83;20470;-60
2021/06/05 09:34:59;;;;;;;;;;;;;;;24.59;32.04;96136.59;1720492;83;20106;-60
2021/06/05 09:37:29;;;;;;;;;;;;;;;24.54;26.38;96147.69;1720296;83;20101;-60
2021/06/05 09:40:14;;;;;;;;;;;;;;;24.67;29.56;96135.63;1721443;83;20097;-60
2021/06/05 09:42:43;;;;;;;;;;;;;;;24.81;29.55;96132.86;1721103;82;20116;-60
2021/06/05 09:45:28;;;;;;;;;;;;;;;24.82;30.46;96128.33;1721215;83;20395;-60
2021/06/05 09:48:16;;;;;;;;;;;;;;;24.82;25.45;96128.33;1721528;82;20089;-60
2021/06/05 09:50:45;;;;;;;;;;;;;;;25.06;27.14;96129.87;1721166;83;20137;-60
2021/06/05 09:53:15;;;;;;;;;;;;;;;24.92;28.06;96128.12;1721407;83;20128;-60
2021/06/05 09:55:42;;;;;;;;;;;;;;;24.79;27.05;96127.19;1717755;83;20125;-59
2021/06/05 09:58:11;;;;;;;;;;;;;;;25.00;27.54;96120.85;1711828;84;20138;-59
2021/06/05 10:00:40;;;;;;;;;;;;;;;25.12;26.44;96119.98;1710111;83;20130;-59
2021/06/05 10:03:31;;;;;;;;;;;;;;;25.32;26.73;96111.05;1708245;84;20201;-59
2021/06/05 10:05:58;;;;;;;;;;;;;;;25.52;23.92;96111.02;1708412;84;20138;-60
2021/06/05 10:08:33;;;;;;;;;;;;;;;25.81;26.75;96107.13;1708534;84;20179;-60
2021/06/05 10:11:06;;;;;;;;;;;;;;;25.92;27.61;96108.23;1708642;84;20127;-60
2021/06/05 10:13:36;;;;;;;;;;;;;;;26.06;27.91;96103.56;1708532;84;20134;-60
2021/06/05 10:16:17;;;;;;;;;;;;;;;26.37;25.70;96100.47;1708611;84;20154;-59
2021/06/05 10:18:52;;;;;;;;;;;;;;;26.41;24.60;96098.78;1708518;84;20211;-60
2021/06/05 10:21:24;;;;;;;;;;;;;;;26.52;24.56;96100.68;1708393;84;20412;-60
2021/06/05 10:23:54;;;;;;;;;;;;;;;26.55;30.01;96102.69;1708668;84;20126;-59
2021/06/05 10:26:24;;;;;;;;;;;;;;;26.52;25.61;96103.39;1706948;84;20150;-59
2021/06/05 10:28:58;;;;;;;;;;;;;;;26.74;24.91;96102.69;1705662;84;20138;-59
2021/06/05 10:31:25;;;;;;;;;;;;;;;26.65;25.73;96099.31;1708686;84;20416;-60
2021/06/05 10:34:05;;;;;;;;;;;;;;;26.32;25.53;96092.69;1708339;84;20130;-60
2021/06/05 10:36:46;;;;;;;;;;;;;;;26.02;27.25;96105.24;1707938;84;20110;-60
2021/06/05 10:39:16;;;;;;;;;;;;;;;25.77;25.75;96096.64;1702146;84;20182;-59
2021/06/05 10:41:45;;;;;;;;;;;;;;;25.46;26.95;96092.05;1707107;84;20126;-59
2021/06/05 10:44:12;;;;;;;;;;;;;;;25.29;30.08;96085.61;1708441;84;20448;-60
2021/06/05 10:46:42;;;;;;;;;;;;;;;25.13;29.35;96085.28;1708349;84;20135;-60
2021/06/05 10:49:18;;;;;;;;;;;;;;;24.92;28.98;96087.62;1708242;84;20110;-59
2021/06/05 10:51:47;;;;;;;;;;;;;;;24.73;28.81;96079.03;1708141;84;20138;-59
2021/06/05 10:54:17;;;;;;;;;;;;;;;24.65;30.14;96075.50;1708155;84;20439;-60
2021/06/05 10:57:05;;;;;;;;;;;;;;;24.68;30.07;96076.64;1713141;84;20105;-59
2021/06/05 10:59:51;;;;;;;;;;;;;;;24.68;29.69;96070.38;1715644;84;20153;-60
2021/06/05 11:02:42;;;;;;;;;;;;;;;24.69;28.98;96075.66;1720747;83;20417;-59
2021/06/05 11:05:26;;;;;;;;;;;;;;;24.64;29.26;96066.14;1721037;83;20097;-59
2021/06/05 11:07:52;;;;;;;;;;;;;;;24.71;30.46;96066.98;1720013;83;20109;-61
2021/06/05 11:10:54;;;;;;;;;;;;;;;24.85;30.49;96064.72;1717493;83;20153;-60
2021/06/05 11:13:36;;;;;;;;;;;;;;;24.89;30.09;96058.61;1721089;83;20108;-60
2021/06/05 11:16:09;;;;;;;;;;;;;;;25.31;27.16;96064.77;1721474;83;20089;-60
2021/06/05 11:18:42;;;;;;;;;;;;;;;25.65;28.69;96065.47;1721111;83;20395;-60
2021/06/05 11:21:25;;;;;;;;;;;;;;;25.89;28.33;96065.56;1721205;83;20422;-60
2021/06/05 11:24:00;;;;;;;;;;;;;;;25.95;31.52;96071.50;1721233;83;20106;-60
2021/06/05 11:26:40;;;;;;;;;;;;;;;26.27;31.27;96068.66;1721543;83;20145;-59
2021/06/05 11:29:19;;;;;;;;;;;;;;;26.40;26.97;96062.35;1721255;83;20145;-59
2021/06/05 11:31:54;;;;;;;;;;;;;;;26.48;27.43;96059.44;1722866;82;20404;-59
2021/06/05 11:34:40;;;;;;;;;;;;;;;26.30;28.90;96062.17;1721249;83;20128;-60
2021/06/05 11:37:16;;;;;;;;;;;;;;;26.48;28.56;96060.79;1720873;83;20114;-59
2021/06/05 11:39:46;;;;;;;;;;;;;;;26.72;26.18;96057.27;1721421;83;20089;-60
2021/06/05 11:42:22;;;;;;;;;;;;;;;26.91;26.38;96052.66;1721378;83;20445;-60
2021/06/05 11:44:52;;;;;;;;;;;;;;;27.26;28.78;96049.11;1721220;83;20109;-60
2021/06/05 11:47:23;;;;;;;;;;;;;;;27.51;29.40;96043.98;1720520;83;20483;-60
2021/06/05 11:49:58;;;;;;;;;;;;;;;27.73;26.01;96043.14;1718911;83;20101;-60
2021/06/05 11:52:34;;;;;;;;;;;;;;;27.82;24.68;96045.13;1692463;83;20150;-60
2021/06/05 11:55:13;;;;;;;;;;;;;;;28.17;26.03;96049.08;1720941;83;20117;-60
2021/06/05 11:57:46;;;;;;;;;;;;;;;28.21;25.42;96045.11;1711633;84;20126;-59
2021/06/05 12:00:25;;;;;;;;;;;;;;;28.27;23.63;96045.09;1707968;84;20126;-60
2021/06/05 12:03:02;;;;;;;;;;;;;;;28.00;24.02;96048.23;1708824;83;20138;-59
2021/06/05 12:05:32;;;;;;;;;;;;;;;27.61;23.59;96043.63;1708461;84;20134;-59
2021/06/05 12:07:58;;;;;;;;;;;;;;;27.87;24.05;96037.98;1708310;84;20131;-60
2021/06/05 12:10:37;;;;;;;;;;;;;;;28.04;23.66;96036.98;1708327;84;20432;-60
2021/06/05 12:13:05;;;;;;;;;;;;;;;28.40;23.91;96033.62;1708895;84;20456;-60
2021/06/05 12:15:36;;;;;;;;;;;;;;;28.29;24.79;96031.41;1708708;84;20138;-60
2021/06/05 12:18:08;;;;;;;;;;;;;;;28.10;25.20;96028.86;1681306;84;20122;-60
2021/06/05 12:20:44;;;;;;;;;;;;;;;28.04;24.58;96019.36;1706850;84;20118;-59
2021/06/05 12:23:23;;;;;;;;;;;;;;;28.26;24.20;96019.81;1708812;84;20158;-60
2021/06/05 12:25:50;;;;;;;;;;;;;;;27.97;23.74;96018.16;1708438;84;20448;-60
2021/06/05 12:28:29;;;;;;;;;;;;;;;27.89;25.67;96014.33;1708843;84;20177;-60
2021/06/05 12:30:59;;;;;;;;;;;;;;;28.18;27.55;96010.60;1708876;84;20134;-60
2021/06/05 12:33:29;;;;;;;;;;;;;;;28.36;26.83;96010.92;1706874;84;20139;-60
2021/06/05 12:35:55;;;;;;;;;;;;;;;28.21;25.47;96012.55;1708403;84;20420;-60
2021/06/05 12:38:36;;;;;;;;;;;;;;;27.89;24.14;96000.77;1708700;84;20134;-60
2021/06/05 12:41:08;;;;;;;;;;;;;;;28.14;24.16;96001.83;1708801;84;20134;-60
2021/06/05 12:43:37;;;;;;;;;;;;;;;28.77;24.17;95991.17;1709014;84;20121;-60
2021/06/05 12:46:09;;;;;;;;;;;;;;;29.64;25.58;95991.42;1708447;84;20134;-60
2021/06/05 12:48:36;;;;;;;;;;;;;;;30.34;23.15;95981.52;1708844;84;20158;-60
2021/06/05 12:51:05;;;;;;;;;;;;;;;30.29;22.37;95981.96;1708570;84;20431;-60
2021/06/05 12:53:32;;;;;;;;;;;;;;;30.46;21.77;95977.66;1709020;84;20142;-60
2021/06/05 12:56:01;;;;;;;;;;;;;;;30.32;21.22;95971.29;1696291;84;20110;-60
2021/06/05 12:58:40;;;;;;;;;;;;;;;30.35;22.42;95971.86;1677397;86;20110;-60
2021/06/05 13:01:36;;;;;;;;;;;;;;;30.58;22.44;95971.59;1678472;83;20147;-61
2021/06/05 13:04:05;;;;;;;;;;;;;;;30.34;22.44;95968.78;1721279;83;20109;-60
2021/06/05 13:06:34;;;;;;;;;;;;;;;30.48;21.50;95971.58;1721267;83;20133;-60